sensor_id;sensor_type;location;lat;lon;timestamp;pressure;altitude;pressure_sealevel;temperature
15544;BMP180;7873;52.230;12.856;2022-09-13T00:00:31;100501.69;;;23.51
15544;BMP180;7873;52.230;12.856;2022-09-13T00:02:59;100496.69;;;23.48
15544;BMP180;7873;52.230;12.856;2022-09-13T00:05:26;100497.34;;;23.50
15544;BMP180;7873;52.230;12.856;2022-09-13T00:07:53;100499.47;;;23.54
15544;BMP180;7873;52.230;12.856;2022-09-13T00:10:20;100496.94;;;23.53
15544;BMP180;7873;52.230;12.856;2022-09-13T00:12:47;100494.66;;;23.50
15544;BMP180;7873;52.230;12.856;2022-09-13T00:15:14;100485.94;;;23.48
15544;BMP180;7873;52.230;12.856;2022-09-13T00:17:41;100479.09;;;23.45
15544;BMP180;7873;52.230;12.856;2022-09-13T00:20:09;100478.06;;;23.46
15544;BMP180;7873;52.230;12.856;2022-09-13T00:22:36;100470.19;;;23.45
15544;BMP180;7873;52.230;12.856;2022-09-13T00:25:04;100470.81;;;23.47
15544;BMP180;7873;52.230;12.856;2022-09-13T00:27:31;100458.03;;;23.49
15544;BMP180;7873;52.230;12.856;2022-09-13T00:29:58;100455.34;;;23.49
15544;BMP180;7873;52.230;12.856;2022-09-13T00:32:25;100453.50;;;23.49
15544;BMP180;7873;52.230;12.856;2022-09-13T00:34:52;100452.03;;;23.47
15544;BMP180;7873;52.230;12.856;2022-09-13T00:37:20;100449.53;;;23.45
15544;BMP180;7873;52.230;12.856;2022-09-13T00:39:47;100445.91;;;23.38
15544;BMP180;7873;52.230;12.856;2022-09-13T00:42:14;100435.34;;;23.37
15544;BMP180;7873;52.230;12.856;2022-09-13T00:44:56;100426.44;;;23.36
15544;BMP180;7873;52.230;12.856;2022-09-13T00:47:26;100425.16;;;23.32
15544;BMP180;7873;52.230;12.856;2022-09-13T00:49:57;100421.81;;;23.30
15544;BMP180;7873;52.230;12.856;2022-09-13T00:52:29;100416.63;;;23.29
15544;BMP180;7873;52.230;12.856;2022-09-13T00:55:00;100411.25;;;23.29
15544;BMP180;7873;52.230;12.856;2022-09-13T00:57:28;100409.59;;;23.28
15544;BMP180;7873;52.230;12.856;2022-09-13T01:00:00;100412.66;;;23.25
15544;BMP180;7873;52.230;12.856;2022-09-13T01:02:32;100404.78;;;23.23
15544;BMP180;7873;52.230;12.856;2022-09-13T01:04:59;100411.84;;;23.24
15544;BMP180;7873;52.230;12.856;2022-09-13T01:07:26;100412.00;;;23.23
15544;BMP180;7873;52.230;12.856;2022-09-13T01:09:54;100421.56;;;23.25
15544;BMP180;7873;52.230;12.856;2022-09-13T01:12:28;100404.16;;;23.21
15544;BMP180;7873;52.230;12.856;2022-09-13T01:14:59;100399.97;;;23.19
15544;BMP180;7873;52.230;12.856;2022-09-13T01:17:27;100416.09;;;23.19
15544;BMP180;7873;52.230;12.856;2022-09-13T01:19:55;100403.84;;;23.16
15544;BMP180;7873;52.230;12.856;2022-09-13T01:22:38;100402.19;;;23.15
15544;BMP180;7873;52.230;12.856;2022-09-13T01:28:16;100384.59;;;23.13
15544;BMP180;7873;52.230;12.856;2022-09-13T01:30:52;100386.66;;;23.11
15544;BMP180;7873;52.230;12.856;2022-09-13T01:33:30;100387.63;;;23.10
15544;BMP180;7873;52.230;12.856;2022-09-13T01:36:19;100394.50;;;23.12
15544;BMP180;7873;52.230;12.856;2022-09-13T01:38:54;100391.00;;;23.12
15544;BMP180;7873;52.230;12.856;2022-09-13T01:41:38;100392.03;;;23.11
15544;BMP180;7873;52.230;12.856;2022-09-13T01:44:14;100395.69;;;23.10
15544;BMP180;7873;52.230;12.856;2022-09-13T01:46:50;100392.53;;;23.06
15544;BMP180;7873;52.230;12.856;2022-09-13T01:49:27;100388.81;;;23.07
15544;BMP180;7873;52.230;12.856;2022-09-13T01:52:00;100395.00;;;23.08
15544;BMP180;7873;52.230;12.856;2022-09-13T01:54:33;100387.16;;;23.06
15544;BMP180;7873;52.230;12.856;2022-09-13T01:57:08;100386.94;;;23.08
15544;BMP180;7873;52.230;12.856;2022-09-13T01:59:45;100378.09;;;23.07
15544;BMP180;7873;52.230;12.856;2022-09-13T02:02:18;100366.50;;;23.07
15544;BMP180;7873;52.230;12.856;2022-09-13T02:04:50;100348.34;;;23.09
15544;BMP180;7873;52.230;12.856;2022-09-13T02:07:21;100345.66;;;23.09
15544;BMP180;7873;52.230;12.856;2022-09-13T02:09:55;100337.59;;;23.09
15544;BMP180;7873;52.230;12.856;2022-09-13T02:12:25;100324.53;;;23.06
15544;BMP180;7873;52.230;12.856;2022-09-13T02:14:56;100328.88;;;23.07
15544;BMP180;7873;52.230;12.856;2022-09-13T02:17:28;100340.66;;;23.06
15544;BMP180;7873;52.230;12.856;2022-09-13T02:19:58;100332.97;;;23.03
15544;BMP180;7873;52.230;12.856;2022-09-13T02:22:30;100330.94;;;23.05
15544;BMP180;7873;52.230;12.856;2022-09-13T02:24:59;100319.56;;;23.03
15544;BMP180;7873;52.230;12.856;2022-09-13T02:27:29;100314.38;;;23.01
15544;BMP180;7873;52.230;12.856;2022-09-13T02:30:02;100318.91;;;23.01
15544;BMP180;7873;52.230;12.856;2022-09-13T02:32:32;100308.38;;;22.99
15544;BMP180;7873;52.230;12.856;2022-09-13T02:35:04;100311.69;;;23.01
15544;BMP180;7873;52.230;12.856;2022-09-13T02:37:33;100317.06;;;23.01
15544;BMP180;7873;52.230;12.856;2022-09-13T02:40:04;100311.88;;;23.00
15544;BMP180;7873;52.230;12.856;2022-09-13T02:42:35;100311.06;;;22.99
15544;BMP180;7873;52.230;12.856;2022-09-13T02:45:07;100308.16;;;23.01
15544;BMP180;7873;52.230;12.856;2022-09-13T02:47:41;100304.84;;;22.99
15544;BMP180;7873;52.230;12.856;2022-09-13T02:50:18;100299.28;;;23.00
15544;BMP180;7873;52.230;12.856;2022-09-13T02:52:49;100291.41;;;22.99
15544;BMP180;7873;52.230;12.856;2022-09-13T02:55:29;100293.06;;;23.00
15544;BMP180;7873;52.230;12.856;2022-09-13T02:57:59;100281.53;;;22.99
15544;BMP180;7873;52.230;12.856;2022-09-13T03:00:28;100278.38;;;22.96
15544;BMP180;7873;52.230;12.856;2022-09-13T03:03:00;100280.03;;;22.97
15544;BMP180;7873;52.230;12.856;2022-09-13T03:05:27;100274.38;;;23.06
15544;BMP180;7873;52.230;12.856;2022-09-13T03:07:54;100276.97;;;23.14
15544;BMP180;7873;52.230;12.856;2022-09-13T03:10:21;100270.28;;;23.25
15544;BMP180;7873;52.230;12.856;2022-09-13T03:13:03;100267.19;;;23.28
15544;BMP180;7873;52.230;12.856;2022-09-13T03:15:44;100262.13;;;23.33
15544;BMP180;7873;52.230;12.856;2022-09-13T03:18:29;100261.53;;;23.37
15544;BMP180;7873;52.230;12.856;2022-09-13T03:21:06;100266.97;;;23.44
15544;BMP180;7873;52.230;12.856;2022-09-13T03:23:43;100256.06;;;23.45
15544;BMP180;7873;52.230;12.856;2022-09-13T03:26:25;100256.31;;;23.50
15544;BMP180;7873;52.230;12.856;2022-09-13T03:29:03;100260.00;;;23.49
15544;BMP180;7873;52.230;12.856;2022-09-13T03:31:48;100265.56;;;23.48
15544;BMP180;7873;52.230;12.856;2022-09-13T03:34:23;100260.28;;;23.54
15544;BMP180;7873;52.230;12.856;2022-09-13T03:36:54;100256.56;;;23.55
15544;BMP180;7873;52.230;12.856;2022-09-13T03:39:30;100258.03;;;23.58
15544;BMP180;7873;52.230;12.856;2022-09-13T03:42:01;100259.50;;;23.60
15544;BMP180;7873;52.230;12.856;2022-09-13T03:44:30;100258.47;;;23.61
15544;BMP180;7873;52.230;12.856;2022-09-13T03:47:00;100247.53;;;23.63
15544;BMP180;7873;52.230;12.856;2022-09-13T03:49:29;100251.88;;;23.64
15544;BMP180;7873;52.230;12.856;2022-09-13T03:51:57;100242.59;;;23.66
15544;BMP180;7873;52.230;12.856;2022-09-13T03:54:27;100236.84;;;23.69
15544;BMP180;7873;52.230;12.856;2022-09-13T03:57:11;100242.03;;;23.71
15544;BMP180;7873;52.230;12.856;2022-09-13T03:59:41;100238.06;;;23.67
15544;BMP180;7873;52.230;12.856;2022-09-13T04:02:09;100247.59;;;23.69
15544;BMP180;7873;52.230;12.856;2022-09-13T04:04:38;100240.19;;;23.71
15544;BMP180;7873;52.230;12.856;2022-09-13T04:07:06;100241.84;;;23.72
15544;BMP180;7873;52.230;12.856;2022-09-13T04:09:33;100228.56;;;23.71
15544;BMP180;7873;52.230;12.856;2022-09-13T04:12:00;100232.13;;;23.71
15544;BMP180;7873;52.230;12.856;2022-09-13T04:14:26;100223.59;;;23.68
15544;BMP180;7873;52.230;12.856;2022-09-13T04:16:54;100218.41;;;23.66
15544;BMP180;7873;52.230;12.856;2022-09-13T04:19:21;100222.31;;;23.64
15544;BMP180;7873;52.230;12.856;2022-09-13T04:21:51;100215.03;;;23.58
15544;BMP180;7873;52.230;12.856;2022-09-13T04:24:19;100208.88;;;23.43
15544;BMP180;7873;52.230;12.856;2022-09-13T04:26:48;100205.25;;;23.29
15544;BMP180;7873;52.230;12.856;2022-09-13T04:29:15;100211.47;;;23.15
15544;BMP180;7873;52.230;12.856;2022-09-13T04:31:42;100210.03;;;23.13
15544;BMP180;7873;52.230;12.856;2022-09-13T04:34:09;100203.44;;;23.15
15544;BMP180;7873;52.230;12.856;2022-09-13T04:36:36;100207.97;;;23.15
15544;BMP180;7873;52.230;12.856;2022-09-13T04:39:04;100197.50;;;23.20
15544;BMP180;7873;52.230;12.856;2022-09-13T04:41:31;100202.41;;;23.16
15544;BMP180;7873;52.230;12.856;2022-09-13T04:43:59;100211.06;;;23.12
15544;BMP180;7873;52.230;12.856;2022-09-13T04:46:26;100197.50;;;23.05
15544;BMP180;7873;52.230;12.856;2022-09-13T04:48:53;100206.84;;;23.09
15544;BMP180;7873;52.230;12.856;2022-09-13T04:51:20;100201.75;;;23.14
15544;BMP180;7873;52.230;12.856;2022-09-13T04:53:51;100194.16;;;23.18
15544;BMP180;7873;52.230;12.856;2022-09-13T04:56:21;100188.03;;;23.24
15544;BMP180;7873;52.230;12.856;2022-09-13T04:58:50;100195.69;;;23.27
15544;BMP180;7873;52.230;12.856;2022-09-13T05:01:20;100189.28;;;23.28
15544;BMP180;7873;52.230;12.856;2022-09-13T05:03:47;100187.63;;;23.27
15544;BMP180;7873;52.230;12.856;2022-09-13T05:06:17;100188.47;;;23.27
15544;BMP180;7873;52.230;12.856;2022-09-13T05:08:49;100192.38;;;23.25
15544;BMP180;7873;52.230;12.856;2022-09-13T05:11:21;100193.16;;;23.19
15544;BMP180;7873;52.230;12.856;2022-09-13T05:13:52;100185.91;;;23.19
15544;BMP180;7873;52.230;12.856;2022-09-13T05:16:21;100186.34;;;23.23
15544;BMP180;7873;52.230;12.856;2022-09-13T05:18:48;100185.91;;;23.19
15544;BMP180;7873;52.230;12.856;2022-09-13T05:21:16;100190.25;;;23.20
15544;BMP180;7873;52.230;12.856;2022-09-13T05:23:43;100185.09;;;23.19
15544;BMP180;7873;52.230;12.856;2022-09-13T05:26:10;100179.47;;;23.14
15544;BMP180;7873;52.230;12.856;2022-09-13T05:28:38;100182.97;;;23.14
15544;BMP180;7873;52.230;12.856;2022-09-13T05:31:06;100180.38;;;23.06
15544;BMP180;7873;52.230;12.856;2022-09-13T05:33:34;100184.91;;;23.06
15544;BMP180;7873;52.230;12.856;2022-09-13T05:36:02;100192.78;;;23.07
15544;BMP180;7873;52.230;12.856;2022-09-13T05:38:29;100188.22;;;23.08
15544;BMP180;7873;52.230;12.856;2022-09-13T05:40:56;100191.94;;;23.07
15544;BMP180;7873;52.230;12.856;2022-09-13T05:43:24;100195.22;;;23.02
15544;BMP180;7873;52.230;12.856;2022-09-13T05:46:01;100196.63;;;22.98
15544;BMP180;7873;52.230;12.856;2022-09-13T05:48:28;100194.94;;;22.97
15544;BMP180;7873;52.230;12.856;2022-09-13T05:50:55;100196.41;;;23.00
15544;BMP180;7873;52.230;12.856;2022-09-13T05:53:21;100199.34;;;23.05
15544;BMP180;7873;52.230;12.856;2022-09-13T05:55:48;100206.59;;;23.04
15544;BMP180;7873;52.230;12.856;2022-09-13T05:58:15;100208.63;;;23.02
15544;BMP180;7873;52.230;12.856;2022-09-13T06:00:41;100203.66;;;22.99
15544;BMP180;7873;52.230;12.856;2022-09-13T06:03:09;100210.38;;;22.95
15544;BMP180;7873;52.230;12.856;2022-09-13T06:05:36;100218.81;;;22.92
15544;BMP180;7873;52.230;12.856;2022-09-13T06:08:03;100215.69;;;22.89
15544;BMP180;7873;52.230;12.856;2022-09-13T06:10:29;100204.13;;;22.88
15544;BMP180;7873;52.230;12.856;2022-09-13T06:12:56;100200.41;;;22.89
15544;BMP180;7873;52.230;12.856;2022-09-13T06:15:23;100203.31;;;22.88
15544;BMP180;7873;52.230;12.856;2022-09-13T06:17:50;100204.97;;;22.89
15544;BMP180;7873;52.230;12.856;2022-09-13T06:20:17;100199.38;;;22.90
15544;BMP180;7873;52.230;12.856;2022-09-13T06:22:46;100203.09;;;22.89
15544;BMP180;7873;52.230;12.856;2022-09-13T06:25:13;100198.38;;;22.91
15544;BMP180;7873;52.230;12.856;2022-09-13T06:27:39;100199.38;;;22.90
15544;BMP180;7873;52.230;12.856;2022-09-13T06:30:07;100206.88;;;22.95
15544;BMP180;7873;52.230;12.856;2022-09-13T06:32:36;100202.53;;;22.94
15544;BMP180;7873;52.230;12.856;2022-09-13T06:35:03;100209.09;;;22.91
15544;BMP180;7873;52.230;12.856;2022-09-13T06:37:31;100204.59;;;22.92
15544;BMP180;7873;52.230;12.856;2022-09-13T06:39:58;100177.75;;;22.92
15544;BMP180;7873;52.230;12.856;2022-09-13T06:42:25;100179.41;;;22.93
15544;BMP180;7873;52.230;12.856;2022-09-13T06:44:51;100174.19;;;22.91
15544;BMP180;7873;52.230;12.856;2022-09-13T06:47:18;100167.19;;;22.90
15544;BMP180;7873;52.230;12.856;2022-09-13T06:49:44;100167.38;;;22.89
15544;BMP180;7873;52.230;12.856;2022-09-13T06:52:11;100181.44;;;22.91
15544;BMP180;7873;52.230;12.856;2022-09-13T06:54:39;100178.94;;;22.89
15544;BMP180;7873;52.230;12.856;2022-09-13T06:57:06;100140.53;;;22.89
15544;BMP180;7873;52.230;12.856;2022-09-13T06:59:32;100137.63;;;22.90
15544;BMP180;7873;52.230;12.856;2022-09-13T07:02:00;100135.97;;;22.89
15544;BMP180;7873;52.230;12.856;2022-09-13T07:04:27;100140.31;;;22.90
15544;BMP180;7873;52.230;12.856;2022-09-13T07:06:56;100137.63;;;22.90
15544;BMP180;7873;52.230;12.856;2022-09-13T07:09:23;100143.00;;;22.90
15544;BMP180;7873;52.230;12.856;2022-09-13T07:11:53;100151.06;;;22.90
15544;BMP180;7873;52.230;12.856;2022-09-13T07:14:22;100152.09;;;22.89
15544;BMP180;7873;52.230;12.856;2022-09-13T07:16:50;100141.34;;;22.89
15544;BMP180;7873;52.230;12.856;2022-09-13T07:19:18;100135.16;;;22.89
15544;BMP180;7873;52.230;12.856;2022-09-13T07:21:45;100131.47;;;22.90
15544;BMP180;7873;52.230;12.856;2022-09-13T07:24:13;100148.19;;;22.92
15544;BMP180;7873;52.230;12.856;2022-09-13T07:26:39;100152.94;;;22.90
15544;BMP180;7873;52.230;12.856;2022-09-13T07:29:10;100151.91;;;22.91
15544;BMP180;7873;52.230;12.856;2022-09-13T07:31:39;100151.06;;;22.90
15544;BMP180;7873;52.230;12.856;2022-09-13T07:34:07;100156.44;;;22.90
15544;BMP180;7873;52.230;12.856;2022-09-13T07:36:37;100157.44;;;22.89
15544;BMP180;7873;52.230;12.856;2022-09-13T07:39:04;100152.47;;;22.86
15544;BMP180;7873;52.230;12.856;2022-09-13T07:41:32;100165.63;;;22.81
15544;BMP180;7873;52.230;12.856;2022-09-13T07:43:59;100155.34;;;22.85
15544;BMP180;7873;52.230;12.856;2022-09-13T07:46:30;100157.66;;;22.88
15544;BMP180;7873;52.230;12.856;2022-09-13T07:48:59;100153.38;;;22.93
15544;BMP180;7873;52.230;12.856;2022-09-13T07:51:27;100157.06;;;22.92
15544;BMP180;7873;52.230;12.856;2022-09-13T07:53:55;100165.34;;;22.91
15544;BMP180;7873;52.230;12.856;2022-09-13T07:59:44;100159.13;;;22.90
15544;BMP180;7873;52.230;12.856;2022-09-13T08:02:12;100176.38;;;22.81
15544;BMP180;7873;52.230;12.856;2022-09-13T08:04:39;100152.38;;;22.80
15544;BMP180;7873;52.230;12.856;2022-09-13T08:07:06;100159.88;;;22.84
15544;BMP180;7873;52.230;12.856;2022-09-13T08:09:32;100157.38;;;22.83
15544;BMP180;7873;52.230;12.856;2022-09-13T08:11:59;100156.34;;;22.84
15544;BMP180;7873;52.230;12.856;2022-09-13T08:14:26;100158.88;;;22.85
15544;BMP180;7873;52.230;12.856;2022-09-13T08:16:54;100156.00;;;22.87
15544;BMP180;7873;52.230;12.856;2022-09-13T08:19:22;100157.44;;;22.89
15544;BMP180;7873;52.230;12.856;2022-09-13T08:21:49;100173.56;;;22.89
15544;BMP180;7873;52.230;12.856;2022-09-13T08:24:17;100167.19;;;22.90
15544;BMP180;7873;52.230;12.856;2022-09-13T08:26:44;100165.72;;;22.88
15544;BMP180;7873;52.230;12.856;2022-09-13T08:29:11;100166.75;;;22.87
15544;BMP180;7873;52.230;12.856;2022-09-13T08:31:38;100160.34;;;22.88
15544;BMP180;7873;52.230;12.856;2022-09-13T08:34:06;100164.69;;;22.89
15544;BMP180;7873;52.230;12.856;2022-09-13T08:36:34;100162.66;;;22.91
15544;BMP180;7873;52.230;12.856;2022-09-13T08:39:01;100166.78;;;22.93
15544;BMP180;7873;52.230;12.856;2022-09-13T08:41:50;100161.63;;;22.92
15544;BMP180;7873;52.230;12.856;2022-09-13T08:44:24;100161.16;;;22.88
15544;BMP180;7873;52.230;12.856;2022-09-13T08:46:56;100153.63;;;22.77
15544;BMP180;7873;52.230;12.856;2022-09-13T08:49:27;100157.38;;;22.83
15544;BMP180;7873;52.230;12.856;2022-09-13T08:51:59;100157.03;;;22.86
15544;BMP180;7873;52.230;12.856;2022-09-13T08:54:28;100148.75;;;22.87
15544;BMP180;7873;52.230;12.856;2022-09-13T08:56:58;100140.53;;;22.89
15544;BMP180;7873;52.230;12.856;2022-09-13T08:59:42;100140.31;;;22.90
15544;BMP180;7873;52.230;12.856;2022-09-13T09:02:21;100133.94;;;22.91
15544;BMP180;7873;52.230;12.856;2022-09-13T09:04:53;100141.81;;;22.93
15544;BMP180;7873;52.230;12.856;2022-09-13T09:07:25;100139.31;;;22.91
15544;BMP180;7873;52.230;12.856;2022-09-13T09:09:54;100137.47;;;22.92
15544;BMP180;7873;52.230;12.856;2022-09-13T09:12:29;100143.66;;;22.92
15544;BMP180;7873;52.230;12.856;2022-09-13T09:15:04;100145.53;;;22.92
15544;BMP180;7873;52.230;12.856;2022-09-13T09:17:42;100143.47;;;22.94
15544;BMP180;7873;52.230;12.856;2022-09-13T09:20:20;100145.13;;;22.95
15544;BMP180;7873;52.230;12.856;2022-09-13T09:22:51;100139.56;;;22.96
15544;BMP180;7873;52.230;12.856;2022-09-13T09:25:22;100134.41;;;22.95
15544;BMP180;7873;52.230;12.856;2022-09-13T09:27:49;100140.22;;;22.98
15544;BMP180;7873;52.230;12.856;2022-09-13T09:30:16;100143.56;;;23.00
15544;BMP180;7873;52.230;12.856;2022-09-13T09:33:02;100132.97;;;22.99
15544;BMP180;7873;52.230;12.856;2022-09-13T09:35:48;100138.56;;;22.97
15544;BMP180;7873;52.230;12.856;2022-09-13T09:38:31;100130.69;;;22.96
15544;BMP180;7873;52.230;12.856;2022-09-13T09:40:59;100124.28;;;22.97
15544;BMP180;7873;52.230;12.856;2022-09-13T09:43:31;100129.47;;;22.98
15544;BMP180;7873;52.230;12.856;2022-09-13T09:46:00;100132.97;;;22.99
15544;BMP180;7873;52.230;12.856;2022-09-13T09:48:36;100127.63;;;22.99
15544;BMP180;7873;52.230;12.856;2022-09-13T09:51:06;100124.13;;;22.98
15544;BMP180;7873;52.230;12.856;2022-09-13T09:53:39;100133.63;;;23.01
15544;BMP180;7873;52.230;12.856;2022-09-13T09:59:31;100126.59;;;23.00
15544;BMP180;7873;52.230;12.856;2022-09-13T10:01:58;100124.94;;;22.99
15544;BMP180;7873;52.230;12.856;2022-09-13T10:04:26;100127.44;;;23.00
15544;BMP180;7873;52.230;12.856;2022-09-13T10:07:09;100124.75;;;23.00
15544;BMP180;7873;52.230;12.856;2022-09-13T10:09:38;100117.72;;;22.99
15544;BMP180;7873;52.230;12.856;2022-09-13T10:12:05;100123.91;;;23.00
15544;BMP180;7873;52.230;12.856;2022-09-13T10:14:37;100110.88;;;22.97
15544;BMP180;7873;52.230;12.856;2022-09-13T10:17:14;100113.38;;;22.98
15544;BMP180;7873;52.230;12.856;2022-09-13T10:19:50;100113.00;;;23.01
15544;BMP180;7873;52.230;12.856;2022-09-13T10:22:19;100111.38;;;23.07
15544;BMP180;7873;52.230;12.856;2022-09-13T10:24:47;100110.34;;;23.08
15544;BMP180;7873;52.230;12.856;2022-09-13T10:27:23;100116.38;;;23.10
15544;BMP180;7873;52.230;12.856;2022-09-13T10:29:53;100107.88;;;23.06
15544;BMP180;7873;52.230;12.856;2022-09-13T10:32:24;100102.63;;;22.98
15544;BMP180;7873;52.230;12.856;2022-09-13T10:34:51;100113.94;;;22.94
15544;BMP180;7873;52.230;12.856;2022-09-13T10:37:20;100104.94;;;23.01
15544;BMP180;7873;52.230;12.856;2022-09-13T10:39:54;100104.66;;;22.96
15544;BMP180;7873;52.230;12.856;2022-09-13T10:42:23;100106.34;;;22.97
15544;BMP180;7873;52.230;12.856;2022-09-13T10:44:52;100112.13;;;23.01
15544;BMP180;7873;52.230;12.856;2022-09-13T10:47:23;100123.91;;;23.00
15544;BMP180;7873;52.230;12.856;2022-09-13T10:49:52;100128.91;;;23.03
15544;BMP180;7873;52.230;12.856;2022-09-13T10:52:28;100129.75;;;23.03
15544;BMP180;7873;52.230;12.856;2022-09-13T10:55:18;100119.94;;;22.96
15544;BMP180;7873;52.230;12.856;2022-09-13T10:57:50;100116.25;;;22.97
15544;BMP180;7873;52.230;12.856;2022-09-13T11:00:19;100128.00;;;22.96
15544;BMP180;7873;52.230;12.856;2022-09-13T11:03:06;100122.69;;;23.02
15544;BMP180;7873;52.230;12.856;2022-09-13T11:05:42;100118.22;;;23.09
15544;BMP180;7873;52.230;12.856;2022-09-13T11:08:36;100121.00;;;23.16
15544;BMP180;7873;52.230;12.856;2022-09-13T11:11:14;100117.09;;;23.18
15544;BMP180;7873;52.230;12.856;2022-09-13T11:13:55;100123.94;;;23.21
15544;BMP180;7873;52.230;12.856;2022-09-13T11:16:35;100120.06;;;23.23
15544;BMP180;7873;52.230;12.856;2022-09-13T11:19:38;100123.56;;;23.24
15544;BMP180;7873;52.230;12.856;2022-09-13T11:22:24;100119.03;;;23.24
15544;BMP180;7873;52.230;12.856;2022-09-13T11:25:13;100118.19;;;23.24
15544;BMP180;7873;52.230;12.856;2022-09-13T11:27:50;100118.19;;;23.24
15544;BMP180;7873;52.230;12.856;2022-09-13T11:30:20;100112.63;;;23.25
15544;BMP180;7873;52.230;12.856;2022-09-13T11:33:13;100116.97;;;23.26
15544;BMP180;7873;52.230;12.856;2022-09-13T11:35:46;100111.41;;;23.28
15544;BMP180;7873;52.230;12.856;2022-09-13T11:38:28;100107.69;;;23.29
15544;BMP180;7873;52.230;12.856;2022-09-13T11:41:00;100104.13;;;23.22
15544;BMP180;7873;52.230;12.856;2022-09-13T11:43:42;100102.63;;;23.19
15544;BMP180;7873;52.230;12.856;2022-09-13T11:46:18;100102.97;;;23.10
15544;BMP180;7873;52.230;12.856;2022-09-13T11:49:10;100099.06;;;23.12
15544;BMP180;7873;52.230;12.856;2022-09-13T11:51:49;100101.81;;;23.19
15544;BMP180;7873;52.230;12.856;2022-09-13T11:54:27;100100.88;;;23.26
15544;BMP180;7873;52.230;12.856;2022-09-13T11:57:01;100098.25;;;23.33
15544;BMP180;7873;52.230;12.856;2022-09-13T11:59:36;100097.84;;;23.36
15544;BMP180;7873;52.230;12.856;2022-09-13T12:02:13;100089.56;;;23.37
15544;BMP180;7873;52.230;12.856;2022-09-13T12:04:46;100087.34;;;23.41
15544;BMP180;7873;52.230;12.856;2022-09-13T12:07:18;100086.31;;;23.42
15544;BMP180;7873;52.230;12.856;2022-09-13T12:09:52;100084.44;;;23.42
15544;BMP180;7873;52.230;12.856;2022-09-13T12:12:22;100079.91;;;23.43
15544;BMP180;7873;52.230;12.856;2022-09-13T12:14:56;100083.63;;;23.42
15544;BMP180;7873;52.230;12.856;2022-09-13T12:17:28;100088.78;;;23.43
15544;BMP180;7873;52.230;12.856;2022-09-13T12:19:57;100083.22;;;23.45
15544;BMP180;7873;52.230;12.856;2022-09-13T12:22:27;100077.84;;;23.45
15544;BMP180;7873;52.230;12.856;2022-09-13T12:24:57;100085.75;;;23.46
15544;BMP180;7873;52.230;12.856;2022-09-13T12:27:28;100078.50;;;23.47
15544;BMP180;7873;52.230;12.856;2022-09-13T12:30:04;100083.69;;;23.48
15544;BMP180;7873;52.230;12.856;2022-09-13T12:32:31;100070.03;;;23.50
15544;BMP180;7873;52.230;12.856;2022-09-13T12:35:02;100081.63;;;23.50
15544;BMP180;7873;52.230;12.856;2022-09-13T12:40:40;100085.75;;;23.53
15544;BMP180;7873;52.230;12.856;2022-09-13T12:43:26;100090.97;;;23.54
15544;BMP180;7873;52.230;12.856;2022-09-13T12:46:33;100087.25;;;23.55
15544;BMP180;7873;52.230;12.856;2022-09-13T12:49:19;100081.03;;;23.55
15544;BMP180;7873;52.230;12.856;2022-09-13T12:52:06;100074.84;;;23.54
15544;BMP180;7873;52.230;12.856;2022-09-13T12:55:14;100069.47;;;23.54
15544;BMP180;7873;52.230;12.856;2022-09-13T12:57:51;100066.78;;;23.54
15544;BMP180;7873;52.230;12.856;2022-09-13T13:00:21;100082.72;;;23.56
15544;BMP180;7873;52.230;12.856;2022-09-13T13:03:00;100072.78;;;23.56
15544;BMP180;7873;52.230;12.856;2022-09-13T13:05:32;100062.03;;;23.56
15544;BMP180;7873;52.230;12.856;2022-09-13T13:08:03;100064.72;;;23.56
15544;BMP180;7873;52.230;12.856;2022-09-13T13:10:32;100062.03;;;23.56
15544;BMP180;7873;52.230;12.856;2022-09-13T13:13:11;100060.19;;;23.57
15544;BMP180;7873;52.230;12.856;2022-09-13T13:15:59;100060.19;;;23.57
15544;BMP180;7873;52.230;12.856;2022-09-13T13:18:29;100061.84;;;23.58
15544;BMP180;7873;52.230;12.856;2022-09-13T13:27:35;100056.88;;;23.61
15544;BMP180;7873;52.230;12.856;2022-09-13T13:30:33;100058.94;;;23.59
15544;BMP180;7873;52.230;12.856;2022-09-13T13:33:12;100054.41;;;23.60
15544;BMP180;7873;52.230;12.856;2022-09-13T13:35:42;100048.41;;;23.58
15544;BMP180;7873;52.230;12.856;2022-09-13T13:38:30;100044.06;;;23.57
15544;BMP180;7873;52.230;12.856;2022-09-13T13:43:47;100058.53;;;23.56
15544;BMP180;7873;52.230;12.856;2022-09-13T13:46:26;100052.94;;;23.57
15544;BMP180;7873;52.230;12.856;2022-09-13T13:48:53;100051.09;;;23.58
15544;BMP180;7873;52.230;12.856;2022-09-13T13:51:26;100048.41;;;23.58
15544;BMP180;7873;52.230;12.856;2022-09-13T13:53:57;100049.63;;;23.55
15544;BMP180;7873;52.230;12.856;2022-09-13T13:56:33;100051.44;;;23.48
15544;BMP180;7873;52.230;12.856;2022-09-13T13:59:07;100051.31;;;23.35
15544;BMP180;7873;52.230;12.856;2022-09-13T14:01:38;100057.03;;;23.26
15544;BMP180;7873;52.230;12.856;2022-09-13T14:04:46;100047.94;;;23.27
15544;BMP180;7873;52.230;12.856;2022-09-13T14:07:45;100046.28;;;23.26
15544;BMP180;7873;52.230;12.856;2022-09-13T14:10:20;100051.03;;;23.24
15544;BMP180;7873;52.230;12.856;2022-09-13T14:13:03;100046.50;;;23.24
15544;BMP180;7873;52.230;12.856;2022-09-13T14:15:42;100040.69;;;23.21
15544;BMP180;7873;52.230;12.856;2022-09-13T14:18:36;100050.00;;;23.25
15544;BMP180;7873;52.230;12.856;2022-09-13T14:21:19;100057.50;;;23.29
15544;BMP180;7873;52.230;12.856;2022-09-13T14:23:47;100061.72;;;23.17
15544;BMP180;7873;52.230;12.856;2022-09-13T14:26:14;100049.75;;;23.20
15544;BMP180;7873;52.230;12.856;2022-09-13T14:28:41;100058.06;;;23.04
15544;BMP180;7873;52.230;12.856;2022-09-13T14:31:16;100050.47;;;22.86
15544;BMP180;7873;52.230;12.856;2022-09-13T14:33:44;100051.41;;;22.79
15544;BMP180;7873;52.230;12.856;2022-09-13T14:36:17;100050.59;;;22.78
15544;BMP180;7873;52.230;12.856;2022-09-13T14:38:50;100056.06;;;22.70
15544;BMP180;7873;52.230;12.856;2022-09-13T14:41:18;100055.50;;;22.75
15544;BMP180;7873;52.230;12.856;2022-09-13T14:43:46;100053.59;;;22.69
15544;BMP180;7873;52.230;12.856;2022-09-13T14:46:17;100049.25;;;22.68